createdAt,value
2018-07-04T00:00:04.899Z,18.50
2018-07-04T00:04:19.520Z,18.40
2018-07-04T00:08:34.466Z,18.30
2018-07-04T00:12:49.305Z,18.20
2018-07-04T00:17:04.265Z,18.20
2018-07-04T00:21:19.236Z,18.10
2018-07-04T00:25:34.502Z,17.90
2018-07-04T00:29:49.511Z,17.90
2018-07-04T00:34:04.396Z,17.90
2018-07-04T00:38:19.326Z,17.80
2018-07-04T00:42:34.223Z,17.70
2018-07-04T00:46:49.215Z,17.60
2018-07-04T00:51:04.067Z,17.50
2018-07-04T00:55:18.904Z,17.40
2018-07-04T00:59:33.912Z,17.30
2018-07-04T01:03:48.774Z,17.20
2018-07-04T01:08:05.687Z,17.20
2018-07-04T01:12:20.540Z,17.10
2018-07-04T01:16:35.524Z,17.00
2018-07-04T01:20:55.825Z,17.00
2018-07-04T01:25:10.737Z,16.90
2018-07-04T01:29:26.231Z,16.90
2018-07-04T01:33:41.203Z,16.80
2018-07-04T01:37:55.863Z,16.70
2018-07-04T01:42:10.792Z,16.70
2018-07-04T01:46:25.673Z,16.60
2018-07-04T01:50:40.539Z,16.50
2018-07-04T01:54:55.464Z,16.50
2018-07-04T01:59:10.261Z,16.40
2018-07-04T02:03:25.327Z,16.30
2018-07-04T02:07:39.924Z,16.30
2018-07-04T02:11:54.874Z,16.20
2018-07-04T02:16:09.851Z,16.20
2018-07-04T02:20:24.552Z,16.10
2018-07-04T02:24:39.308Z,16.00
2018-07-04T02:28:54.214Z,16.00
2018-07-04T02:33:09.248Z,15.90
2018-07-04T02:37:24.205Z,15.90
2018-07-04T02:41:39.099Z,15.80
2018-07-04T02:45:54.018Z,15.70
2018-07-04T02:50:09.653Z,15.70
2018-07-04T02:54:24.553Z,15.60
2018-07-04T02:58:39.608Z,15.50
2018-07-04T03:02:54.420Z,15.50
2018-07-04T03:07:09.492Z,15.40
2018-07-04T03:11:24.391Z,15.40
2018-07-04T03:15:39.162Z,15.30
2018-07-04T03:19:54.102Z,15.20
2018-07-04T03:24:08.983Z,15.20
2018-07-04T03:28:23.851Z,15.10
2018-07-04T03:32:38.715Z,15.10
2018-07-04T03:36:53.396Z,15.00
2018-07-04T03:41:08.240Z,15.00
2018-07-04T03:45:23.231Z,15.00
2018-07-04T03:49:38.008Z,15.00
2018-07-04T03:53:52.768Z,15.00
2018-07-04T03:58:08.187Z,15.00
2018-07-04T04:02:22.929Z,15.00
2018-07-04T04:06:37.829Z,14.90
2018-07-04T04:10:52.812Z,14.90
2018-07-04T04:15:07.691Z,14.90
2018-07-04T04:19:28.856Z,14.90
2018-07-04T04:23:43.663Z,14.90
2018-07-04T04:27:58.610Z,14.90
2018-07-04T04:32:13.488Z,14.90
2018-07-04T04:36:28.320Z,15.00
2018-07-04T04:40:43.248Z,15.00
2018-07-04T04:44:58.145Z,15.10
2018-07-04T04:49:12.852Z,15.10
2018-07-04T04:53:27.628Z,15.10
2018-07-04T04:57:42.485Z,15.20
2018-07-04T05:01:57.225Z,15.20
2018-07-04T05:06:12.004Z,15.30
2018-07-04T05:10:27.089Z,15.40
2018-07-04T05:14:41.921Z,15.40
2018-07-04T05:18:56.736Z,15.50
2018-07-04T05:23:11.928Z,15.60
2018-07-04T05:27:26.748Z,15.70
2018-07-04T05:31:41.514Z,15.80
2018-07-04T05:35:56.435Z,15.90
2018-07-04T05:40:11.378Z,16.00
2018-07-04T05:44:26.577Z,16.10
2018-07-04T05:48:41.256Z,16.10
2018-07-04T05:52:56.273Z,16.10
2018-07-04T05:57:11.283Z,16.30
2018-07-04T06:01:26.284Z,16.30
2018-07-04T06:05:41.063Z,16.40
2018-07-04T06:09:55.974Z,16.50
2018-07-04T06:14:10.841Z,16.80
2018-07-04T06:18:25.816Z,16.80
2018-07-04T06:22:40.891Z,16.90
2018-07-04T06:26:55.754Z,17.10
2018-07-04T06:31:10.676Z,17.50
2018-07-04T06:35:25.492Z,18.60
2018-07-04T06:39:27.989Z,20.20
2018-07-04T06:43:30.468Z,21.90
2018-07-04T06:47:32.911Z,23.30
2018-07-04T06:51:35.356Z,24.50
2018-07-04T06:55:37.801Z,25.60
2018-07-04T06:59:40.256Z,26.60
2018-07-04T07:03:55.056Z,27.40
2018-07-04T07:08:09.877Z,28.10
2018-07-04T07:12:24.620Z,28.80
2018-07-04T07:16:39.659Z,29.30
2018-07-04T07:20:54.940Z,29.60
2018-07-04T07:25:09.856Z,30.10
2018-07-04T07:29:24.924Z,30.40
2018-07-04T07:33:40.185Z,30.60
2018-07-04T07:37:55.185Z,30.90
2018-07-04T07:42:10.034Z,31.20
2018-07-04T07:46:25.049Z,31.50
2018-07-04T07:50:39.983Z,31.70
2018-07-04T07:54:54.987Z,32.00
2018-07-04T07:59:09.828Z,32.10
2018-07-04T08:03:24.690Z,32.30
2018-07-04T08:07:39.751Z,32.50
2018-07-04T08:11:54.740Z,32.70
2018-07-04T08:16:09.480Z,32.90
2018-07-04T08:20:24.508Z,33.10
2018-07-04T08:24:39.453Z,33.20
2018-07-04T08:28:54.403Z,33.20
2018-07-04T08:33:09.344Z,33.10
2018-07-04T08:37:24.105Z,33.00
2018-07-04T08:41:38.897Z,32.90
2018-07-04T08:45:53.872Z,33.00
2018-07-04T08:50:08.709Z,32.90
2018-07-04T08:54:23.552Z,32.80
2018-07-04T08:58:38.635Z,32.70
2018-07-04T09:02:53.447Z,32.50
2018-07-04T09:07:08.251Z,32.60
2018-07-04T09:11:23.159Z,32.60
2018-07-04T09:15:38.560Z,32.70
2018-07-04T09:19:53.302Z,32.80
2018-07-04T09:24:08.232Z,32.80
2018-07-04T09:28:23.181Z,32.80
2018-07-04T09:32:38.126Z,32.70
2018-07-04T09:36:52.977Z,32.30
2018-07-04T09:41:07.915Z,31.70
2018-07-04T09:45:22.889Z,31.20
2018-07-04T09:49:37.727Z,30.70
2018-07-04T09:53:52.584Z,30.10
2018-07-04T09:58:07.448Z,29.80
2018-07-04T10:02:22.145Z,29.50
2018-07-04T10:06:37.180Z,29.20
2018-07-04T10:10:52.141Z,29.00
2018-07-04T10:15:06.909Z,28.80
2018-07-04T10:19:21.619Z,28.60
2018-07-04T10:23:36.539Z,28.40
2018-07-04T10:27:51.573Z,28.20
2018-07-04T10:32:06.516Z,28.10
2018-07-04T10:36:21.436Z,28.10
2018-07-04T10:40:36.254Z,28.00
2018-07-04T10:44:52.093Z,27.90
2018-07-04T10:49:07.119Z,27.90
2018-07-04T10:53:21.961Z,27.90
2018-07-04T10:57:36.913Z,27.90
2018-07-04T11:01:51.711Z,27.80
2018-07-04T11:06:06.571Z,27.90
2018-07-04T11:10:21.596Z,27.90
2018-07-04T11:14:36.512Z,27.80
2018-07-04T11:18:51.437Z,27.90
2018-07-04T11:23:06.336Z,27.90
2018-07-04T11:27:21.232Z,27.90
2018-07-04T11:31:36.216Z,28.00
2018-07-04T11:35:51.023Z,28.00
2018-07-04T11:40:06.039Z,28.10
2018-07-04T11:44:20.900Z,28.30
2018-07-04T11:48:23.608Z,28.40
2018-07-04T11:52:26.061Z,28.70
2018-07-04T11:56:28.550Z,28.80
2018-07-04T12:00:30.968Z,28.90
2018-07-04T12:04:45.799Z,29.10
2018-07-04T12:08:48.249Z,29.20
2018-07-04T12:12:50.701Z,29.40
2018-07-04T12:16:53.112Z,29.50
2018-07-04T12:20:55.568Z,29.60
2018-07-04T12:24:58.216Z,29.60
2018-07-04T12:29:00.673Z,29.80
2018-07-04T12:33:03.713Z,29.90
2018-07-04T12:37:06.188Z,30.10
2018-07-04T12:41:08.641Z,30.20
2018-07-04T12:45:11.171Z,30.40
2018-07-04T12:49:13.649Z,30.50
2018-07-04T12:53:16.187Z,30.70
2018-07-04T12:57:31.129Z,30.80
2018-07-04T13:01:46.044Z,30.80
2018-07-04T13:06:01.628Z,30.80
2018-07-04T13:10:16.595Z,30.90
2018-07-04T13:14:31.540Z,30.90
2018-07-04T13:18:46.385Z,31.00
2018-07-04T13:23:01.523Z,31.10
2018-07-04T13:27:16.455Z,31.10
2018-07-04T13:31:31.394Z,31.20
2018-07-04T13:35:46.252Z,31.20
2018-07-04T13:44:09.888Z,31.40
2018-07-04T13:48:24.834Z,31.40
2018-07-04T13:52:39.577Z,31.50
2018-07-04T13:56:54.477Z,31.40
2018-07-04T14:01:09.456Z,31.40
2018-07-04T14:05:24.225Z,31.40
2018-07-04T14:09:39.099Z,31.40
2018-07-04T14:13:54.208Z,31.40
2018-07-04T14:18:08.845Z,31.50
2018-07-04T14:22:23.700Z,31.60
2018-07-04T14:26:38.881Z,31.60
2018-07-04T14:30:53.660Z,31.80
2018-07-04T14:35:08.703Z,31.80
2018-07-04T14:39:23.560Z,31.80
2018-07-04T14:43:38.444Z,32.00
2018-07-04T14:47:53.552Z,32.00
2018-07-04T14:52:08.784Z,32.20
2018-07-04T14:56:23.499Z,32.30
2018-07-04T15:00:38.457Z,32.30
2018-07-04T15:04:53.396Z,32.40
2018-07-04T15:09:08.187Z,32.30
2018-07-04T15:13:23.009Z,32.30
2018-07-04T15:17:37.882Z,32.30
2018-07-04T15:21:52.852Z,32.30
2018-07-04T15:26:07.684Z,32.40
2018-07-04T15:30:22.737Z,32.40
2018-07-04T15:34:37.613Z,32.50
2018-07-04T15:38:52.375Z,32.50
2018-07-04T15:43:07.371Z,32.60
2018-07-04T15:47:22.374Z,32.60
2018-07-04T15:51:37.358Z,32.50
2018-07-04T15:55:52.328Z,32.50
2018-07-04T16:00:07.182Z,32.50
2018-07-04T16:04:22.091Z,32.50
2018-07-04T16:08:37.084Z,32.40
2018-07-04T16:12:51.969Z,32.40
2018-07-04T16:17:06.890Z,32.40
2018-07-04T16:21:21.563Z,32.30
2018-07-04T16:25:36.716Z,32.30
2018-07-04T16:29:51.682Z,32.30
2018-07-04T16:34:06.384Z,32.30
2018-07-04T16:38:21.317Z,32.20
2018-07-04T16:42:36.190Z,32.20
2018-07-04T16:46:51.136Z,32.20
2018-07-04T16:51:06.068Z,32.20
2018-07-04T16:55:20.858Z,32.20
2018-07-04T16:59:35.612Z,32.20
2018-07-04T17:03:50.558Z,32.10
2018-07-04T17:08:05.274Z,32.10
2018-07-04T17:12:20.196Z,32.10
2018-07-04T17:16:34.924Z,32.10
2018-07-04T17:20:49.684Z,32.10
2018-07-04T17:25:04.599Z,32.10
2018-07-04T17:29:19.272Z,32.10
2018-07-04T17:33:34.171Z,32.10
2018-07-04T17:37:49.053Z,32.10
2018-07-04T17:42:03.891Z,32.00
2018-07-04T17:46:18.773Z,31.90
2018-07-04T17:50:33.699Z,31.90
2018-07-04T17:54:48.521Z,31.80
2018-07-04T17:59:03.298Z,31.70
2018-07-04T18:03:18.356Z,31.60
2018-07-04T18:07:33.265Z,31.50
2018-07-04T18:11:48.144Z,31.30
2018-07-04T18:16:02.986Z,31.20
2018-07-04T18:20:17.673Z,31.10
2018-07-04T18:24:32.630Z,30.90
2018-07-04T18:28:47.393Z,30.80
2018-07-04T18:33:02.132Z,30.70
2018-07-04T18:37:17.077Z,30.60
2018-07-04T18:41:32.077Z,30.50
2018-07-04T18:45:46.776Z,30.40
2018-07-04T18:50:01.821Z,30.30
2018-07-04T18:54:16.749Z,30.20
2018-07-04T19:06:49.031Z,29.80
2018-07-04T19:11:03.933Z,29.50
2018-07-04T19:15:18.967Z,29.40
2018-07-04T19:19:33.797Z,29.10
2018-07-04T19:23:48.612Z,29.00
2018-07-04T19:28:03.597Z,28.80
2018-07-04T19:32:18.285Z,28.60
2018-07-04T19:36:33.908Z,28.50
2018-07-04T19:40:48.660Z,28.40
2018-07-04T19:45:03.706Z,28.20
2018-07-04T19:49:18.566Z,28.10
2018-07-04T19:53:33.348Z,27.90
2018-07-04T19:57:48.414Z,27.70
2018-07-04T20:02:03.228Z,27.50
2018-07-04T20:06:18.077Z,27.30
2018-07-04T20:10:33.154Z,27.20
2018-07-04T20:14:47.995Z,27.00
2018-07-04T20:19:02.677Z,26.90
2018-07-04T20:23:17.569Z,26.70
2018-07-04T20:27:32.545Z,26.60
2018-07-04T20:31:48.041Z,26.40
2018-07-04T20:36:10.271Z,26.30
2018-07-04T20:40:25.785Z,26.10
2018-07-04T20:44:40.462Z,26.00
2018-07-04T20:48:55.398Z,25.80
2018-07-04T20:53:10.211Z,25.70
2018-07-04T20:57:25.013Z,25.50
2018-07-04T21:01:40.051Z,25.40
2018-07-04T21:05:55.039Z,25.30
2018-07-04T21:10:10.057Z,25.20
2018-07-04T21:14:24.928Z,25.10
2018-07-04T21:18:39.759Z,25.00
2018-07-04T21:22:54.706Z,24.90
2018-07-04T21:27:09.781Z,24.80
2018-07-04T21:31:24.559Z,24.70
2018-07-04T21:35:39.339Z,24.60
2018-07-04T21:39:54.260Z,24.60
2018-07-04T21:44:09.306Z,24.40
2018-07-04T21:48:24.175Z,24.30
2018-07-04T21:52:39.040Z,24.30
2018-07-04T21:56:54.040Z,24.10
2018-07-04T22:01:08.810Z,24.10
2018-07-04T22:05:23.662Z,24.00
2018-07-04T22:09:38.666Z,23.80
2018-07-04T22:13:53.705Z,23.70
2018-07-04T22:18:08.609Z,23.70
2018-07-04T22:22:23.421Z,23.60
2018-07-04T22:26:38.479Z,23.50
2018-07-04T22:30:53.200Z,23.40
2018-07-04T22:35:08.044Z,23.30
2018-07-04T22:39:23.201Z,23.30
2018-07-04T22:43:37.804Z,23.20
2018-07-04T22:47:52.707Z,23.10
2018-07-04T22:52:07.725Z,23.00
2018-07-04T22:56:22.577Z,22.90
2018-07-04T23:00:37.679Z,22.90
2018-07-04T23:04:52.451Z,22.80
2018-07-04T23:09:07.208Z,22.70
2018-07-04T23:13:22.133Z,22.60
2018-07-04T23:17:36.725Z,22.60
2018-07-04T23:21:51.768Z,22.50
2018-07-04T23:26:06.712Z,22.40
2018-07-04T23:30:21.666Z,22.30
2018-07-04T23:34:36.525Z,22.20
2018-07-04T23:38:51.454Z,22.10
2018-07-04T23:43:06.331Z,22.00
2018-07-04T23:47:21.159Z,21.90
2018-07-04T23:51:36.069Z,21.80
2018-07-04T23:55:50.795Z,21.70
